createdAt,value
2023-05-05T00:01:24.382Z,4.82
2023-05-05T00:03:51.063Z,4.57
2023-05-05T00:06:18.107Z,4.95
2023-05-05T00:08:44.641Z,4.75
2023-05-05T00:11:12.126Z,4.25
2023-05-05T00:13:38.848Z,4.65
2023-05-05T00:16:06.044Z,4.70
2023-05-05T00:18:33.896Z,4.80
2023-05-05T00:21:01.261Z,4.60
2023-05-05T00:23:27.859Z,4.40
2023-05-05T00:25:54.464Z,4.82
2023-05-05T00:28:21.264Z,5.10
2023-05-05T00:30:47.882Z,4.50
2023-05-05T00:33:14.489Z,5.47
2023-05-05T00:35:41.038Z,4.50
2023-05-05T00:38:07.625Z,4.97
2023-05-05T00:40:34.261Z,4.80
2023-05-05T00:43:00.879Z,4.70
2023-05-05T00:45:27.729Z,4.78
2023-05-05T00:47:56.153Z,4.47
2023-05-05T00:50:23.747Z,4.50
2023-05-05T00:52:51.783Z,4.63
2023-05-05T00:55:18.998Z,4.68
2023-05-05T00:57:46.093Z,4.65
2023-05-05T01:00:13.291Z,4.70
2023-05-05T01:02:40.581Z,5.00
2023-05-05T01:05:09.526Z,4.95
2023-05-05T01:08:03.663Z,5.10
2023-05-05T01:10:48.761Z,5.00
2023-05-05T01:13:36.300Z,4.78
2023-05-05T01:16:20.663Z,5.28
2023-05-05T01:19:12.200Z,4.97
2023-05-05T01:21:56.253Z,4.95
2023-05-05T01:24:58.300Z,4.90
2023-05-05T01:27:34.326Z,5.90
2023-05-05T01:30:38.437Z,5.03
2023-05-05T01:33:08.540Z,4.93
2023-05-05T01:35:43.786Z,4.68
2023-05-05T01:38:16.318Z,4.53
2023-05-05T01:40:52.169Z,5.50
2023-05-05T01:43:21.175Z,5.50
2023-05-05T01:45:49.596Z,5.43
2023-05-05T01:48:19.822Z,5.13
2023-05-05T01:50:48.201Z,4.97
2023-05-05T01:53:18.317Z,5.68
2023-05-05T01:55:46.892Z,5.25
2023-05-05T01:58:15.975Z,5.30
2023-05-05T02:00:44.904Z,4.97
2023-05-05T02:03:14.955Z,5.10
2023-05-05T02:05:43.714Z,5.30
2023-05-05T02:08:11.554Z,5.07
2023-05-05T02:10:40.960Z,5.10
2023-05-05T02:13:10.680Z,4.95
2023-05-05T02:15:39.164Z,4.88
2023-05-05T02:18:06.999Z,4.93
2023-05-05T02:20:34.547Z,4.78
2023-05-05T02:23:01.214Z,4.97
2023-05-05T02:25:40.484Z,5.15
2023-05-05T02:28:15.341Z,5.05
2023-05-05T02:30:43.706Z,5.63
2023-05-05T02:33:13.344Z,6.43
2023-05-05T02:35:41.769Z,4.85
2023-05-05T02:38:17.243Z,4.95
2023-05-05T02:40:46.685Z,4.95
2023-05-05T02:43:16.819Z,4.93
2023-05-05T02:45:43.551Z,5.40
2023-05-05T02:48:13.086Z,5.63
2023-05-05T02:50:39.761Z,5.68
2023-05-05T02:53:06.892Z,5.50
2023-05-05T02:56:18.170Z,6.18
2023-05-05T02:59:23.450Z,5.55
2023-05-05T03:02:21.343Z,5.88
2023-05-05T03:04:56.630Z,5.68
2023-05-05T03:07:30.732Z,5.68
2023-05-05T03:10:07.597Z,6.05
2023-05-05T03:12:39.960Z,5.95
2023-05-05T03:15:10.046Z,5.78
2023-05-05T03:17:37.266Z,6.30
2023-05-05T03:20:07.588Z,5.57
2023-05-05T03:22:38.244Z,6.00
2023-05-05T03:25:06.255Z,5.72
2023-05-05T03:27:34.303Z,5.95
2023-05-05T03:30:01.170Z,5.72
2023-05-05T03:32:27.759Z,5.63
2023-05-05T03:34:54.584Z,5.50
2023-05-05T03:37:21.148Z,5.70
2023-05-05T03:39:47.706Z,5.75
2023-05-05T03:42:14.489Z,5.43
2023-05-05T03:44:41.095Z,5.32
2023-05-05T03:47:07.772Z,6.30
2023-05-05T03:49:34.497Z,6.13
2023-05-05T03:52:01.654Z,5.65
2023-05-05T03:54:28.221Z,6.13
2023-05-05T03:56:55.784Z,6.55
2023-05-05T03:59:22.304Z,5.97
2023-05-05T04:01:49.995Z,5.82
2023-05-05T04:04:16.688Z,5.97
2023-05-05T04:06:43.918Z,5.68
2023-05-05T04:09:12.170Z,5.97
2023-05-05T04:11:38.728Z,6.43
2023-05-05T04:14:05.201Z,5.55
2023-05-05T04:16:31.752Z,6.55
2023-05-05T04:18:58.458Z,6.55
2023-05-05T04:21:25.149Z,5.88
2023-05-05T04:23:52.381Z,6.32
2023-05-05T04:26:18.939Z,5.55
2023-05-05T04:28:45.501Z,5.80
2023-05-05T04:31:12.216Z,6.28
2023-05-05T04:33:38.796Z,6.65
2023-05-05T04:36:05.583Z,6.22
2023-05-05T04:38:32.278Z,5.72
2023-05-05T04:40:59.994Z,6.78
2023-05-05T04:43:27.833Z,5.85
2023-05-05T04:45:56.157Z,5.22
2023-05-05T04:48:23.047Z,6.53
2023-05-05T04:50:49.698Z,6.15
2023-05-05T04:53:16.208Z,6.13
2023-05-05T04:55:42.867Z,5.82
2023-05-05T04:58:09.579Z,5.72
2023-05-05T05:00:37.869Z,6.03
2023-05-05T05:03:04.675Z,6.68
2023-05-05T05:05:31.525Z,6.35
2023-05-05T05:07:58.139Z,6.20
2023-05-05T05:10:24.746Z,6.05
2023-05-05T05:12:52.234Z,6.40
2023-05-05T05:15:19.078Z,6.15
2023-05-05T05:17:45.724Z,6.65
2023-05-05T05:20:12.418Z,7.10
2023-05-05T05:22:39.107Z,6.57
2023-05-05T05:25:06.073Z,5.38
2023-05-05T05:27:32.598Z,6.10
2023-05-05T05:29:59.396Z,6.03
2023-05-05T05:32:26.417Z,7.25
2023-05-05T05:34:53.013Z,6.85
2023-05-05T05:37:19.565Z,8.18
2023-05-05T05:39:52.151Z,7.55
2023-05-05T05:42:19.509Z,7.70
2023-05-05T05:44:46.128Z,6.85
2023-05-05T05:47:12.658Z,7.43
2023-05-05T05:49:39.276Z,6.85
2023-05-05T05:52:06.253Z,7.55
2023-05-05T05:54:34.870Z,10.70
2023-05-05T05:57:02.571Z,8.93
2023-05-05T05:59:29.201Z,7.82
2023-05-05T06:01:56.227Z,7.30
2023-05-05T06:04:23.187Z,7.10
2023-05-05T06:06:49.870Z,7.10
2023-05-05T06:09:16.479Z,7.30
2023-05-05T06:11:43.128Z,7.18
2023-05-05T06:14:09.716Z,6.78
2023-05-05T06:16:36.319Z,6.32
2023-05-05T06:19:04.388Z,6.97
2023-05-05T06:21:31.075Z,6.57
2023-05-05T06:23:57.692Z,6.35
2023-05-05T06:26:24.255Z,6.72
2023-05-05T06:28:50.877Z,6.82
2023-05-05T06:31:17.599Z,6.57
2023-05-05T06:33:44.242Z,6.38
2023-05-05T06:36:10.949Z,6.82
2023-05-05T06:38:37.525Z,5.78
2023-05-05T06:41:04.323Z,6.00
2023-05-05T06:43:31.510Z,6.32
2023-05-05T06:45:58.123Z,5.32
2023-05-05T06:48:25.012Z,5.60
2023-05-05T06:50:51.611Z,5.28
2023-05-05T06:53:18.210Z,5.85
2023-05-05T06:55:46.502Z,5.13
2023-05-05T06:58:13.233Z,5.53
2023-05-05T07:00:40.971Z,5.75
2023-05-05T07:03:07.955Z,5.47
2023-05-05T07:05:34.498Z,5.63
2023-05-05T07:08:01.016Z,5.90
2023-05-05T07:10:28.059Z,5.25
2023-05-05T07:12:55.177Z,5.45
2023-05-05T07:15:28.855Z,4.70
2023-05-05T07:17:56.929Z,5.07
2023-05-05T07:20:24.360Z,5.43
2023-05-05T07:22:51.490Z,5.35
2023-05-05T07:25:18.206Z,5.63
2023-05-05T07:27:45.030Z,5.57
2023-05-05T07:30:15.562Z,4.97
2023-05-05T07:35:11.450Z,4.80
2023-05-05T07:37:38.098Z,5.00
2023-05-05T07:40:05.191Z,4.68
2023-05-05T07:42:31.731Z,5.03
2023-05-05T07:44:58.430Z,4.50
2023-05-05T07:47:25.129Z,4.75
2023-05-05T07:49:51.689Z,4.90
2023-05-05T07:52:33.079Z,4.65
2023-05-05T07:55:04.463Z,5.07
2023-05-05T07:57:30.991Z,4.80
2023-05-05T07:59:57.523Z,5.32
2023-05-05T08:02:24.306Z,5.18
2023-05-05T08:04:50.895Z,4.63
2023-05-05T08:07:17.431Z,4.75
2023-05-05T08:09:44.007Z,5.00
2023-05-05T08:12:12.375Z,4.93
2023-05-05T08:14:40.925Z,5.20
2023-05-05T08:17:07.447Z,5.05
2023-05-05T08:19:34.072Z,4.55
2023-05-05T08:22:01.748Z,4.53
2023-05-05T08:24:28.354Z,4.78
2023-05-05T08:26:56.171Z,4.78
2023-05-05T08:29:23.098Z,4.47
2023-05-05T08:31:49.735Z,3.95
2023-05-05T08:34:16.326Z,4.32
2023-05-05T08:36:42.878Z,4.43
2023-05-05T08:39:09.805Z,4.03
2023-05-05T08:41:36.369Z,3.78
2023-05-05T08:44:03.068Z,4.20
2023-05-05T08:46:31.588Z,4.93
2023-05-05T08:49:00.210Z,4.60
2023-05-05T08:51:31.732Z,4.70
2023-05-05T08:54:02.896Z,6.22
2023-05-05T08:56:34.394Z,4.03
2023-05-05T08:59:02.669Z,3.95
2023-05-05T09:01:32.596Z,4.05
2023-05-05T09:04:00.014Z,4.22
2023-05-05T09:06:27.426Z,5.05
2023-05-05T09:08:54.490Z,4.75
2023-05-05T09:11:22.647Z,4.45
2023-05-05T09:13:49.932Z,4.00
2023-05-05T09:16:16.689Z,4.25
2023-05-05T09:18:43.334Z,3.17
2023-05-05T09:21:21.378Z,3.72
2023-05-05T09:24:09.234Z,3.65
2023-05-05T09:26:38.696Z,3.88
2023-05-05T09:29:06.133Z,3.53
2023-05-05T09:31:36.777Z,3.85
2023-05-05T09:34:15.521Z,4.00
2023-05-05T09:36:47.575Z,5.78
2023-05-05T09:39:19.160Z,3.90
2023-05-05T09:41:46.964Z,4.50
2023-05-05T09:44:16.153Z,3.70
2023-05-05T09:46:53.573Z,3.83
2023-05-05T09:49:26.988Z,6.82
2023-05-05T09:51:54.915Z,4.40
2023-05-05T09:54:23.248Z,3.38
2023-05-05T09:56:50.868Z,4.05
2023-05-05T09:59:17.774Z,3.40
2023-05-05T10:01:45.671Z,3.33
2023-05-05T10:04:31.596Z,3.55
2023-05-05T10:06:59.172Z,3.33
2023-05-05T10:09:27.090Z,3.40
2023-05-05T10:11:56.282Z,3.35
2023-05-05T10:14:25.268Z,3.42
2023-05-05T10:16:54.479Z,3.85
2023-05-05T10:19:25.008Z,3.22
2023-05-05T10:21:54.515Z,3.28
2023-05-05T10:24:50.250Z,3.40
2023-05-05T10:27:23.344Z,3.65
2023-05-05T10:29:52.828Z,3.85
2023-05-05T10:32:56.350Z,3.50
2023-05-05T10:35:22.983Z,3.42
2023-05-05T10:37:52.183Z,3.40
2023-05-05T10:40:22.110Z,3.25
2023-05-05T10:42:51.853Z,3.85
2023-05-05T10:45:18.550Z,3.53
2023-05-05T10:47:45.521Z,4.30
2023-05-05T10:50:29.921Z,4.47
2023-05-05T10:53:39.740Z,4.13
2023-05-05T10:56:14.508Z,3.65
2023-05-05T10:58:58.463Z,3.90
2023-05-05T11:01:33.434Z,4.63
2023-05-05T11:04:22.743Z,3.90
2023-05-05T11:07:09.796Z,3.90
2023-05-05T11:09:57.731Z,4.95
2023-05-05T11:12:24.720Z,3.67
2023-05-05T11:15:22.198Z,3.25
2023-05-05T11:17:49.094Z,3.80
2023-05-05T11:20:16.142Z,3.75
2023-05-05T11:23:05.019Z,4.35
2023-05-05T11:25:35.533Z,4.13
2023-05-05T11:28:08.763Z,4.05
2023-05-05T11:30:59.493Z,3.80
2023-05-05T11:33:38.932Z,4.43
2023-05-05T11:36:07.376Z,4.07
2023-05-05T11:39:02.644Z,5.28
2023-05-05T11:41:32.330Z,3.97
2023-05-05T11:44:14.877Z,4.30
2023-05-05T11:47:06.100Z,4.60
2023-05-05T11:49:38.049Z,4.68
2023-05-05T11:52:12.900Z,4.25
2023-05-05T11:54:41.674Z,4.22
2023-05-05T11:57:11.585Z,4.22
2023-05-05T11:59:49.793Z,4.45
2023-05-05T12:02:18.049Z,3.78
2023-05-05T12:04:46.917Z,3.47
2023-05-05T12:07:22.106Z,4.15
2023-05-05T12:09:49.957Z,4.60
2023-05-05T12:12:16.999Z,4.50
2023-05-05T12:14:47.058Z,4.97
2023-05-05T12:17:14.226Z,4.00
2023-05-05T12:19:52.268Z,3.55
2023-05-05T12:22:24.016Z,3.67
2023-05-05T12:25:01.476Z,3.95
2023-05-05T12:27:28.943Z,3.75
2023-05-05T12:29:57.653Z,3.95
2023-05-05T12:32:27.853Z,7.13
2023-05-05T12:34:57.337Z,4.97
2023-05-05T12:37:26.148Z,4.28
2023-05-05T12:39:55.100Z,3.70
2023-05-05T12:42:22.578Z,3.80
2023-05-05T12:44:49.514Z,4.43
2023-05-05T12:47:32.892Z,3.70
2023-05-05T12:50:00.801Z,4.50
2023-05-05T12:52:44.654Z,4.70
2023-05-05T12:55:11.856Z,3.90
2023-05-05T12:57:39.518Z,4.28
2023-05-05T13:00:14.869Z,4.50
2023-05-05T13:02:41.560Z,3.78
2023-05-05T13:05:08.980Z,4.57
2023-05-05T13:07:35.682Z,4.28
2023-05-05T13:10:10.805Z,3.78
2023-05-05T13:12:37.722Z,4.50
2023-05-05T13:15:04.687Z,4.00
2023-05-05T13:17:34.112Z,4.13
2023-05-05T13:20:01.309Z,3.90
2023-05-05T13:22:27.835Z,4.15
2023-05-05T13:24:54.445Z,4.20
2023-05-05T13:27:21.313Z,3.63
2023-05-05T13:29:47.995Z,3.60
2023-05-05T13:32:14.492Z,4.13
2023-05-05T13:34:42.701Z,3.65
2023-05-05T13:37:09.432Z,4.13
2023-05-05T13:39:36.964Z,4.03
2023-05-05T13:42:03.837Z,4.70
2023-05-05T13:44:30.432Z,4.75
2023-05-05T13:46:57.114Z,4.50
2023-05-05T13:49:24.263Z,4.07
2023-05-05T13:51:50.847Z,4.20
2023-05-05T13:54:17.474Z,4.35
2023-05-05T13:56:44.192Z,4.68
2023-05-05T13:59:10.887Z,4.13
2023-05-05T14:01:37.717Z,3.95
2023-05-05T14:04:05.597Z,4.53
2023-05-05T14:06:33.537Z,4.70
2023-05-05T14:09:00.125Z,4.57
2023-05-05T14:11:26.806Z,4.35
2023-05-05T14:13:53.415Z,4.88
2023-05-05T14:16:20.367Z,4.35
2023-05-05T14:18:46.937Z,4.70
2023-05-05T14:21:13.546Z,4.45
2023-05-05T14:23:40.274Z,5.22
2023-05-05T14:26:08.880Z,6.60
2023-05-05T14:28:35.663Z,5.18
2023-05-05T14:31:02.239Z,5.53
2023-05-05T14:33:28.799Z,6.35
2023-05-05T14:35:55.851Z,6.35
2023-05-05T14:38:22.570Z,6.45
2023-05-05T14:40:49.287Z,5.82
2023-05-05T14:43:15.847Z,6.00
2023-05-05T14:45:44.250Z,6.15
2023-05-05T14:48:10.985Z,5.75
2023-05-05T14:50:41.020Z,6.32
2023-05-05T14:53:07.557Z,6.90
2023-05-05T14:55:34.131Z,6.85
2023-05-05T14:58:00.851Z,6.68
2023-05-05T15:00:27.950Z,6.30
2023-05-05T15:02:54.618Z,6.78
2023-05-05T15:05:21.364Z,6.53
2023-05-05T15:07:47.990Z,7.32
2023-05-05T15:10:15.043Z,6.57
2023-05-05T15:12:42.852Z,7.05
2023-05-05T15:15:10.298Z,7.88
2023-05-05T15:17:38.745Z,7.30
2023-05-05T15:20:06.814Z,6.28
2023-05-05T15:22:33.839Z,5.93
2023-05-05T15:25:00.520Z,6.25
2023-05-05T15:27:27.367Z,5.45
2023-05-05T15:29:55.342Z,15.18
2023-05-05T15:32:22.054Z,11.25
2023-05-05T15:34:50.395Z,8.50
2023-05-05T15:37:17.393Z,6.15
2023-05-05T15:39:43.988Z,5.32
2023-05-05T15:42:10.677Z,5.32
2023-05-05T15:44:37.274Z,5.47
2023-05-05T15:47:04.346Z,5.40
2023-05-05T15:49:31.263Z,6.35
2023-05-05T15:51:58.038Z,5.53
2023-05-05T15:54:24.791Z,5.90
2023-05-05T15:56:52.423Z,5.72
2023-05-05T15:59:19.382Z,6.32
2023-05-05T16:01:46.871Z,5.25
2023-05-05T16:04:13.829Z,5.38
2023-05-05T16:06:41.024Z,5.78
2023-05-05T16:09:07.823Z,5.35
2023-05-05T16:11:34.983Z,5.90
2023-05-05T16:14:01.498Z,5.30
2023-05-05T16:16:28.445Z,5.40
2023-05-05T16:18:55.194Z,5.40
2023-05-05T16:21:22.184Z,5.03
2023-05-05T16:23:48.755Z,9.43
2023-05-05T16:26:15.433Z,5.97
2023-05-05T16:28:42.053Z,5.47
2023-05-05T16:31:11.028Z,5.65
2023-05-05T16:33:40.794Z,6.57
2023-05-05T16:36:10.103Z,6.45
2023-05-05T16:38:37.374Z,6.30
2023-05-05T16:41:04.266Z,5.75
2023-05-05T16:43:31.050Z,5.90
2023-05-05T16:45:57.674Z,5.32
2023-05-05T16:48:24.317Z,6.28
2023-05-05T16:50:51.066Z,5.15
2023-05-05T16:53:17.620Z,5.80
2023-05-05T16:55:44.188Z,5.35
2023-05-05T16:58:10.773Z,6.07
2023-05-05T17:00:37.397Z,5.25
2023-05-05T17:03:04.578Z,5.20
2023-05-05T17:05:31.130Z,5.32
2023-05-05T17:07:57.833Z,5.38
2023-05-05T17:10:24.454Z,5.15
2023-05-05T17:12:51.174Z,5.00
2023-05-05T17:15:17.890Z,5.72
2023-05-05T17:17:44.569Z,8.90
2023-05-05T17:20:12.134Z,4.93
2023-05-05T17:22:38.700Z,5.05
2023-05-05T17:25:06.006Z,5.28
2023-05-05T17:27:35.021Z,4.20
2023-05-05T17:30:01.679Z,4.43
2023-05-05T17:32:28.180Z,4.50
2023-05-05T17:34:54.848Z,5.63
2023-05-05T17:37:21.529Z,5.00
2023-05-05T17:39:48.307Z,4.90
2023-05-05T17:42:16.695Z,5.63
2023-05-05T17:44:43.276Z,6.05
2023-05-05T17:47:10.588Z,6.22
2023-05-05T17:49:37.242Z,6.00
2023-05-05T17:52:03.975Z,6.45
2023-05-05T17:54:30.674Z,7.40
2023-05-05T17:56:57.468Z,6.68
2023-05-05T17:59:24.071Z,7.65
2023-05-05T18:01:50.652Z,7.80
2023-05-05T18:04:17.586Z,7.30
2023-05-05T18:06:44.366Z,6.90
2023-05-05T18:09:11.401Z,6.32
2023-05-05T18:11:38.009Z,7.03
2023-05-05T18:14:04.552Z,6.60
2023-05-05T18:16:31.265Z,6.57
2023-05-05T18:18:57.933Z,7.18
2023-05-05T18:21:24.452Z,6.07
2023-05-05T18:23:51.085Z,6.80
2023-05-05T18:26:17.763Z,6.95
2023-05-05T18:28:44.264Z,6.78
2023-05-05T18:31:10.980Z,7.78
2023-05-05T18:33:37.672Z,7.68
2023-05-05T18:36:04.670Z,7.50
2023-05-05T18:38:32.377Z,7.88
2023-05-05T18:41:00.340Z,7.95
2023-05-05T18:43:26.865Z,7.88
2023-05-05T18:45:53.451Z,7.47
2023-05-05T18:48:20.051Z,8.57
2023-05-05T18:50:47.698Z,8.30
2023-05-05T18:53:14.923Z,8.93
2023-05-05T18:55:43.167Z,8.77
2023-05-05T18:58:09.977Z,8.15
2023-05-05T19:00:38.119Z,8.43
2023-05-05T19:03:05.143Z,8.20
2023-05-05T19:05:31.744Z,8.30
2023-05-05T19:07:58.271Z,8.25
2023-05-05T19:10:24.966Z,7.40
2023-05-05T19:12:51.633Z,8.00
2023-05-05T19:15:18.716Z,7.55
2023-05-05T19:17:45.318Z,8.10
2023-05-05T19:20:11.886Z,7.65
2023-05-05T19:22:38.438Z,8.20
2023-05-05T19:25:05.313Z,8.57
2023-05-05T19:27:35.029Z,8.88
2023-05-05T19:30:01.768Z,8.05
2023-05-05T19:32:28.340Z,9.00
2023-05-05T19:34:54.951Z,8.02
2023-05-05T19:37:21.600Z,8.80
2023-05-05T19:39:49.088Z,8.32
2023-05-05T19:42:16.959Z,8.20
2023-05-05T19:44:43.566Z,9.68
2023-05-05T19:47:10.990Z,8.52
2023-05-05T19:49:37.807Z,9.88
2023-05-05T19:52:04.567Z,8.23
2023-05-05T19:54:31.238Z,8.30
2023-05-05T19:56:57.919Z,8.50
2023-05-05T19:59:24.536Z,9.73
2023-05-05T20:01:51.672Z,8.90
2023-05-05T20:04:18.474Z,9.85
2023-05-05T20:06:45.107Z,8.63
2023-05-05T20:09:11.848Z,8.05
2023-05-05T20:11:38.461Z,9.63
2023-05-05T20:14:05.039Z,10.00
2023-05-05T20:16:31.640Z,9.23
2023-05-05T20:18:58.161Z,9.15
2023-05-05T20:21:24.744Z,9.45
2023-05-05T20:23:51.320Z,9.60
2023-05-05T20:26:18.236Z,9.10
2023-05-05T20:28:45.993Z,9.38
2023-05-05T20:31:14.436Z,9.10
2023-05-05T20:33:41.289Z,8.43
2023-05-05T20:36:08.018Z,8.88
2023-05-05T20:38:34.608Z,9.13
2023-05-05T20:41:01.308Z,9.07
2023-05-05T20:43:27.915Z,8.57
2023-05-05T20:45:54.623Z,8.50
2023-05-05T20:48:21.285Z,8.93
2023-05-05T20:50:47.873Z,8.43
2023-05-05T20:53:15.023Z,9.07
2023-05-05T20:55:41.777Z,8.77
2023-05-05T20:58:08.359Z,8.80
2023-05-05T21:00:35.413Z,9.68
2023-05-05T21:03:02.809Z,9.45
2023-05-05T21:05:31.106Z,10.32
2023-05-05T21:07:59.202Z,10.02
2023-05-05T21:10:27.414Z,10.18
2023-05-05T21:12:54.062Z,9.55
2023-05-05T21:15:20.593Z,10.30
2023-05-05T21:17:47.797Z,11.20
2023-05-05T21:20:14.633Z,11.95
2023-05-05T21:22:41.157Z,10.95
2023-05-05T21:25:16.026Z,11.63
2023-05-05T21:27:42.974Z,10.50
2023-05-05T21:30:11.452Z,10.00
2023-05-05T21:32:39.534Z,10.35
2023-05-05T21:35:08.451Z,10.02
2023-05-05T21:37:37.670Z,9.63
2023-05-05T21:40:06.079Z,9.85
2023-05-05T21:42:32.632Z,12.02
2023-05-05T21:44:59.187Z,11.20
2023-05-05T21:47:27.267Z,12.40
2023-05-05T21:49:53.806Z,11.55
2023-05-05T21:52:21.252Z,11.75
2023-05-05T21:54:47.937Z,11.55
2023-05-05T21:57:14.534Z,11.80
2023-05-05T21:59:41.349Z,10.85
2023-05-05T22:02:07.974Z,10.40
2023-05-05T22:04:34.700Z,9.80
2023-05-05T22:07:01.474Z,11.15
2023-05-05T22:09:28.128Z,11.32
2023-05-05T22:11:55.069Z,10.85
2023-05-05T22:14:21.594Z,10.68
2023-05-05T22:16:48.178Z,10.00
2023-05-05T22:19:14.733Z,8.65
2023-05-05T22:21:41.226Z,9.15
2023-05-05T22:24:07.776Z,8.38
2023-05-05T22:26:34.280Z,8.63
2023-05-05T22:29:01.045Z,8.00
2023-05-05T22:31:27.934Z,7.63
2023-05-05T22:33:54.559Z,7.00
2023-05-05T22:36:21.701Z,6.78
2023-05-05T22:38:48.477Z,6.18
2023-05-05T22:41:15.914Z,4.50
2023-05-05T22:43:42.889Z,4.75
2023-05-05T22:46:09.866Z,3.50
2023-05-05T22:48:36.536Z,3.10
2023-05-05T22:51:03.504Z,2.85
2023-05-05T22:53:30.093Z,2.50
2023-05-05T22:55:58.334Z,2.05
2023-05-05T22:58:25.823Z,2.20
2023-05-05T23:00:52.479Z,2.30
2023-05-05T23:03:19.205Z,2.42
2023-05-05T23:05:45.958Z,2.75
2023-05-05T23:08:12.489Z,2.70
2023-05-05T23:10:39.093Z,2.25
2023-05-05T23:13:05.991Z,2.60
2023-05-05T23:15:32.558Z,2.60
2023-05-05T23:17:59.297Z,2.40
2023-05-05T23:20:26.113Z,2.63
2023-05-05T23:22:52.683Z,2.83
2023-05-05T23:25:19.340Z,2.50
2023-05-05T23:27:45.968Z,2.22
2023-05-05T23:30:12.999Z,3.03
2023-05-05T23:32:39.537Z,2.90
2023-05-05T23:35:06.630Z,2.80
2023-05-05T23:37:33.197Z,2.70
2023-05-05T23:39:59.855Z,2.72
2023-05-05T23:42:26.404Z,2.45
2023-05-05T23:44:52.914Z,2.90
2023-05-05T23:47:19.423Z,2.72
2023-05-05T23:49:45.985Z,2.55
2023-05-05T23:52:12.920Z,2.80
2023-05-05T23:54:39.909Z,2.60
2023-05-05T23:57:06.543Z,2.60
2023-05-05T23:59:33.071Z,2.78
